Flight Track Log - Related Links

Times and Time Zones

All times are in EDT time to prevent confusion due to time zone crossing. See the CXA8524 flight status page for this flight to view local times or setup timezone preferences in your user account.

Time Position Orientation Groundspeed Altitude Reporting Facility
EDT Latitude Longitude Course Direction KTS MPH feet Rate Location/Type
Sun 01:02:16 AM 31.1799 121.3335 176° South 168 193 800  Level FlightAware ADS-B (ZSSL)
Sun 01:03:34 AM 31.1158 121.3371 175° South 194 223 3,400 1,731 Climbing FlightAware ADS-B (ZSSS / SHA)
Sun 01:04:00 AM 31.0925 121.3382 177° South 223 257 3,800 913 Climbing FlightAware ADS-B (ZSSS / SHA)
Sun 01:05:52 AM 31.0535 121.2215 281° West 279 321 5,500 1,016 Climbing FlightAware ADS-B (ZSSS / SHA)
Sun 01:06:04 AM 31.0560 121.2048 280° West 282 325 5,900 2,000 Climbing FlightAware ADS-B (ZSSS / SHA)
Sun 01:08:00 AM 30.8617 121.1067 203° Southwest  Level Estimated
Sun 01:09:00 AM 30.7611 121.0562 203° Southwest  Level Estimated
Sun 01:10:00 AM 30.6605 121.0057 203° Southwest  Level Estimated
Sun 01:11:00 AM 30.5599 120.9554 203° Southwest  Level Estimated
Sun 01:12:00 AM 30.4593 120.9051 203° Southwest  Level Estimated
Sun 01:13:00 AM 30.3587 120.8550 203° Southwest  Level Estimated
Sun 01:14:00 AM 30.2581 120.8050 203° Southwest  Level Estimated
Sun 01:15:00 AM 30.1574 120.7550 203° Southwest  Level Estimated
Sun 01:16:00 AM 30.0567 120.7052 203° Southwest  Level Estimated
Sun 01:17:00 AM 29.9560 120.6555 203° Southwest  Level Estimated
Sun 01:18:00 AM 29.8553 120.6059 203° Southwest  Level Estimated
Sun 01:19:00 AM 29.7545 120.5563 203° Southwest  Level Estimated
Sun 01:20:00 AM 29.6538 120.5069 203° Southwest  Level Estimated
Sun 01:21:00 AM 29.5530 120.4576 203° Southwest  Level Estimated
Sun 01:22:00 AM 29.4522 120.4083 203° Southwest  Level Estimated
Sun 01:23:00 AM 29.3514 120.3592 203° Southwest  Level Estimated
Sun 01:24:00 AM 29.2505 120.3102 203° Southwest  Level Estimated
Sun 01:25:00 AM 29.1497 120.2612 203° Southwest  Level Estimated
Sun 01:26:00 AM 29.0488 120.2124 203° Southwest  Level Estimated
Sun 01:27:00 AM 28.9479 120.1636 203° Southwest  Level Estimated
Sun 01:28:00 AM 28.8470 120.1150 203° Southwest  Level Estimated
Sun 01:29:00 AM 28.7461 120.0664 203° Southwest  Level Estimated
Sun 01:30:00 AM 28.6451 120.0180 203° Southwest  Level Estimated
Sun 01:31:00 AM 28.5442 119.9696 203° Southwest  Level Estimated
Sun 01:32:00 AM 28.4432 119.9213 203° Southwest  Level Estimated
Sun 01:33:00 AM 28.3422 119.8731 203° Southwest  Level Estimated
Sun 01:34:00 AM 28.2412 119.8250 203° Southwest  Level Estimated
Sun 01:35:00 AM 28.1402 119.7770 203° Southwest  Level Estimated
Sun 01:36:00 AM 28.0392 119.7291 203° Southwest  Level Estimated
Sun 01:37:00 AM 27.9381 119.6813 203° Southwest  Level Estimated
Sun 01:38:00 AM 27.8370 119.6335 203° Southwest  Level Estimated
Sun 01:39:00 AM 27.7359 119.5859 203° Southwest  Level Estimated
Sun 01:40:00 AM 27.6348 119.5383 203° Southwest  Level Estimated
Sun 01:41:00 AM 27.5337 119.4909 203° Southwest  Level Estimated
Sun 01:42:00 AM 27.4326 119.4435 203° Southwest  Level Estimated
Sun 01:43:00 AM 27.3314 119.3962 203° Southwest  Level Estimated
Sun 01:44:00 AM 27.2302 119.3490 203° Southwest  Level Estimated
Sun 01:45:00 AM 27.1290 119.3018 203° Southwest  Level Estimated
Sun 01:46:00 AM 27.0278 119.2548 202° Southwest  Level Estimated
Sun 01:47:00 AM 26.9266 119.2078 202° Southwest  Level Estimated
Sun 01:48:00 AM 26.8254 119.1610 202° Southwest  Level Estimated
Sun 01:49:00 AM 26.7241 119.1142 202° Southwest  Level Estimated
Sun 01:50:00 AM 26.6229 119.0675 202° Southwest  Level Estimated
Sun 01:51:00 AM 26.5216 119.0209 202° Southwest  Level Estimated
Sun 01:52:00 AM 26.4203 118.9743 202° Southwest  Level Estimated
Sun 01:53:00 AM 26.3190 118.9279 202° Southwest  Level Estimated
Sun 01:54:00 AM 26.2176 118.8815 202° Southwest  Level Estimated
Sun 01:55:00 AM 26.1163 118.8352 202° Southwest  Level Estimated
Sun 01:56:00 AM 26.0150 118.7890 202° Southwest  Level Estimated
Sun 01:57:00 AM 25.9136 118.7429 202° Southwest  Level Estimated
Sun 01:58:00 AM 25.8122 118.6968 202° Southwest  Level Estimated
Sun 01:59:00 AM 25.7108 118.6508 202° Southwest  Level Estimated
Sun 02:00:00 AM 25.6094 118.6049 202° Southwest  Level Estimated
Sun 02:01:00 AM 25.5080 118.5591 202° Southwest  Level Estimated
Sun 02:02:00 AM 25.4065 118.5134 202° Southwest  Level Estimated
Sun 02:03:00 AM 25.3051 118.4677 202° Southwest  Level Estimated
Sun 02:04:00 AM 25.2036 118.4221 202° Southwest  Level Estimated
Sun 02:05:00 AM 25.1021 118.3766 202° Southwest  Level Estimated
Sun 02:06:00 AM 25.0006 118.3311 202° Southwest  Level Estimated
Sun 02:07:00 AM 24.8991 118.2858 202° Southwest  Level Estimated
Sun 02:08:00 AM 24.7976 118.2405 202° Southwest  Level Estimated
Sun 02:09:00 AM 24.6960 118.1953 202° Southwest  Level Estimated
Sun 02:10:00 AM 24.5945 118.1501 202° Southwest  Level Estimated
Sun 02:11:00 AM 24.5440 118.1277 202° Southwest  Level Estimated
Sun 02:12:00 AM 24.5440 118.1277 North  Level Estimated
Sun 02:13:00 AM 24.5440 118.1277 North  Level Estimated
Sun 02:14:00 AM 24.5440 118.1277 North  Level Estimated
Sun 02:15:00 AM 24.5440 118.1277 North  Level Estimated
Sun 02:16:00 AM 24.5440 118.1277 North  Level Estimated
Sun 02:17:00 AM 24.5440 118.1277 North  Level Estimated
Sun 02:18:00 AM 24.5440 118.1277 North  Level Estimated
Sun 02:19:00 AM 24.5440 118.1277 North  Level Estimated
Sun 02:20:00 AM 24.5440 118.1277 North  Level Estimated
Sun 02:21:00 AM 24.5440 118.1277 North  Level Estimated
Sun 02:22:00 AM 24.5440 118.1277 North  Level Estimated
Sun 02:23:00 AM 24.5440 118.1277 North  Level Estimated

Login

Don't have an account? Register now (free) for customized features, flight alerts, and more!